Terminal Aerodrome Forecast
Issued by NWS Binghamton, NY

Home | Current Version | Previous Version | Text Only | Print | Product List | Glossary On
Versions: 1 2 3 4 5 6 7 8 9 10 11 12 13 14 15 16 17 18 19 20 21 22 23 24
000
FTUS41 KBGM 201800 AAA
TAFSYR
TAF AMD
KSYR 201826Z 2018/2118 25013G21KT P6SM -SHSN SCT025 BKN040
      TEMPO 2018/2020 4SM -SHSN BKN025 OVC035
     FM202300 26012G20KT P6SM VCSH SCT025 BKN040
     FM210800 28011G18KT 2SM -SHSN BR BKN015 OVC025
     FM211400 29012G20KT 3SM -SHSN BR SCT015 OVC025=

USA.gov is the U.S. government's official web portal to all federal, state and local government web resources and services.